Almira, Washington
Current Conditions -  °F | °C
As of 1:53 AM on Saturday 20 Dec 2014 (Local Time) from KEPH Reporting Station
Light Rain Light Rain  
Wind Chill:   Ceiling: 4000
Heat Index:   Visibility: 7mi
Dew Point:   Wind: 6mph
Humidity: 93%   Direction: 20°NNE
Pressure: 29.93"   Gusts: NA
Location:  47.71°N, 118.94°W
Report Text: KEPH 200953Z AUTO 02005KT 7SM -RA OVC040 02/01 A2993 RMK AO2 RAB13 SLP146 P0000 T00220011
Loading
Personal Weather Stations






























Interactive Weather Map New forecast layout! Learn more

10-Day Weather Forecast

Advertisements
Track Severe Weather on mobile